sensor_id;sensor_type;location;lat;lon;timestamp;P1;durP1;ratioP1;P2;durP2;ratioP2
64674;SDS011;51090;51.512;11.332;2022-11-20T00:01:20;17.25;;;6.32;;
64674;SDS011;51090;51.512;11.332;2022-11-20T00:03:48;15.55;;;6.03;;
64674;SDS011;51090;51.512;11.332;2022-11-20T00:06:17;13.57;;;5.00;;
64674;SDS011;51090;51.512;11.332;2022-11-20T00:08:44;13.98;;;4.82;;
64674;SDS011;51090;51.512;11.332;2022-11-20T00:11:12;13.65;;;5.30;;
64674;SDS011;51090;51.512;11.332;2022-11-20T00:13:47;13.32;;;6.03;;
64674;SDS011;51090;51.512;11.332;2022-11-20T00:16:16;12.25;;;4.97;;
64674;SDS011;51090;51.512;11.332;2022-11-20T00:18:45;11.43;;;4.78;;
64674;SDS011;51090;51.512;11.332;2022-11-20T00:21:13;9.68;;;4.18;;
64674;SDS011;51090;51.512;11.332;2022-11-20T00:23:42;13.00;;;5.40;;
64674;SDS011;51090;51.512;11.332;2022-11-20T00:26:10;18.60;;;5.00;;
64674;SDS011;51090;51.512;11.332;2022-11-20T00:28:38;12.77;;;4.80;;
64674;SDS011;51090;51.512;11.332;2022-11-20T00:31:06;14.57;;;5.13;;
64674;SDS011;51090;51.512;11.332;2022-11-20T00:33:38;13.57;;;5.32;;
64674;SDS011;51090;51.512;11.332;2022-11-20T00:36:05;11.75;;;4.70;;
64674;SDS011;51090;51.512;11.332;2022-11-20T00:38:36;15.38;;;5.97;;
64674;SDS011;51090;51.512;11.332;2022-11-20T00:41:03;11.35;;;5.47;;
64674;SDS011;51090;51.512;11.332;2022-11-20T00:43:32;12.73;;;5.20;;
64674;SDS011;51090;51.512;11.332;2022-11-20T00:46:05;12.60;;;4.82;;
64674;SDS011;51090;51.512;11.332;2022-11-20T00:48:38;10.90;;;5.40;;
64674;SDS011;51090;51.512;11.332;2022-11-20T00:51:03;16.50;;;6.75;;
64674;SDS011;51090;51.512;11.332;2022-11-20T00:53:29;12.05;;;5.20;;
64674;SDS011;51090;51.512;11.332;2022-11-20T00:55:56;14.25;;;4.70;;
64674;SDS011;51090;51.512;11.332;2022-11-20T00:58:23;11.98;;;5.47;;
64674;SDS011;51090;51.512;11.332;2022-11-20T01:00:50;14.75;;;6.43;;
64674;SDS011;51090;51.512;11.332;2022-11-20T01:03:17;12.80;;;4.85;;
64674;SDS011;51090;51.512;11.332;2022-11-20T01:05:43;14.15;;;5.43;;
64674;SDS011;51090;51.512;11.332;2022-11-20T01:08:09;14.30;;;4.32;;
64674;SDS011;51090;51.512;11.332;2022-11-20T01:10:35;10.43;;;4.63;;
64674;SDS011;51090;51.512;11.332;2022-11-20T01:13:01;12.95;;;4.90;;
64674;SDS011;51090;51.512;11.332;2022-11-20T01:15:45;12.27;;;4.80;;
64674;SDS011;51090;51.512;11.332;2022-11-20T01:18:11;13.68;;;5.30;;
64674;SDS011;51090;51.512;11.332;2022-11-20T01:20:37;10.60;;;5.05;;
64674;SDS011;51090;51.512;11.332;2022-11-20T01:23:03;13.13;;;4.68;;
64674;SDS011;51090;51.512;11.332;2022-11-20T01:25:29;12.20;;;4.95;;
64674;SDS011;51090;51.512;11.332;2022-11-20T01:27:55;11.50;;;5.00;;
64674;SDS011;51090;51.512;11.332;2022-11-20T01:30:20;14.20;;;5.07;;
64674;SDS011;51090;51.512;11.332;2022-11-20T01:32:46;10.75;;;4.38;;
64674;SDS011;51090;51.512;11.332;2022-11-20T01:35:12;8.88;;;4.05;;
64674;SDS011;51090;51.512;11.332;2022-11-20T01:37:38;10.35;;;4.28;;
64674;SDS011;51090;51.512;11.332;2022-11-20T01:40:03;31.30;;;7.82;;
64674;SDS011;51090;51.512;11.332;2022-11-20T01:42:30;15.48;;;5.90;;
64674;SDS011;51090;51.512;11.332;2022-11-20T01:48:33;17.90;;;5.90;;
64674;SDS011;51090;51.512;11.332;2022-11-20T01:51:22;11.40;;;4.78;;
64674;SDS011;51090;51.512;11.332;2022-11-20T01:54:04;11.05;;;4.40;;
64674;SDS011;51090;51.512;11.332;2022-11-20T01:56:35;13.73;;;4.95;;
64674;SDS011;51090;51.512;11.332;2022-11-20T01:59:06;10.68;;;4.32;;
64674;SDS011;51090;51.512;11.332;2022-11-20T02:01:34;9.63;;;4.47;;
64674;SDS011;51090;51.512;11.332;2022-11-20T02:04:00;12.55;;;5.05;;
64674;SDS011;51090;51.512;11.332;2022-11-20T02:06:30;9.02;;;4.75;;
64674;SDS011;51090;51.512;11.332;2022-11-20T02:09:14;13.25;;;5.10;;
64674;SDS011;51090;51.512;11.332;2022-11-20T02:11:41;11.55;;;5.03;;
64674;SDS011;51090;51.512;11.332;2022-11-20T02:14:07;9.48;;;4.13;;
64674;SDS011;51090;51.512;11.332;2022-11-20T02:16:35;9.43;;;4.78;;
64674;SDS011;51090;51.512;11.332;2022-11-20T02:19:06;12.05;;;4.20;;
64674;SDS011;51090;51.512;11.332;2022-11-20T02:21:40;9.07;;;3.93;;
64674;SDS011;51090;51.512;11.332;2022-11-20T02:24:15;9.48;;;3.70;;
64674;SDS011;51090;51.512;11.332;2022-11-20T02:26:46;9.18;;;4.10;;
64674;SDS011;51090;51.512;11.332;2022-11-20T02:29:32;9.38;;;4.00;;
64674;SDS011;51090;51.512;11.332;2022-11-20T02:32:19;10.10;;;3.85;;
64674;SDS011;51090;51.512;11.332;2022-11-20T02:34:51;9.35;;;3.65;;
64674;SDS011;51090;51.512;11.332;2022-11-20T02:37:18;8.63;;;3.58;;
64674;SDS011;51090;51.512;11.332;2022-11-20T02:39:49;12.93;;;4.60;;
64674;SDS011;51090;51.512;11.332;2022-11-20T02:42:17;10.55;;;3.63;;
64674;SDS011;51090;51.512;11.332;2022-11-20T02:44:43;10.75;;;3.90;;
64674;SDS011;51090;51.512;11.332;2022-11-20T02:47:09;15.77;;;4.57;;
64674;SDS011;51090;51.512;11.332;2022-11-20T02:49:35;11.35;;;4.53;;
64674;SDS011;51090;51.512;11.332;2022-11-20T02:52:00;13.90;;;4.88;;
64674;SDS011;51090;51.512;11.332;2022-11-20T02:54:26;10.93;;;4.50;;
64674;SDS011;51090;51.512;11.332;2022-11-20T02:56:52;12.43;;;4.65;;
64674;SDS011;51090;51.512;11.332;2022-11-20T02:59:18;14.45;;;4.38;;
64674;SDS011;51090;51.512;11.332;2022-11-20T03:01:44;11.95;;;4.75;;
64674;SDS011;51090;51.512;11.332;2022-11-20T03:04:09;12.23;;;4.65;;
64674;SDS011;51090;51.512;11.332;2022-11-20T03:06:35;13.45;;;5.07;;
64674;SDS011;51090;51.512;11.332;2022-11-20T03:09:01;12.05;;;5.05;;
64674;SDS011;51090;51.512;11.332;2022-11-20T03:11:27;10.85;;;5.00;;
64674;SDS011;51090;51.512;11.332;2022-11-20T03:13:53;11.52;;;4.75;;
64674;SDS011;51090;51.512;11.332;2022-11-20T03:16:20;11.13;;;4.20;;
64674;SDS011;51090;51.512;11.332;2022-11-20T03:18:47;11.30;;;3.97;;
64674;SDS011;51090;51.512;11.332;2022-11-20T03:21:14;10.43;;;3.60;;
64674;SDS011;51090;51.512;11.332;2022-11-20T03:23:41;11.70;;;3.88;;
64674;SDS011;51090;51.512;11.332;2022-11-20T03:26:17;11.48;;;4.05;;
64674;SDS011;51090;51.512;11.332;2022-11-20T03:28:52;9.60;;;4.55;;
64674;SDS011;51090;51.512;11.332;2022-11-20T03:31:26;10.57;;;4.28;;
64674;SDS011;51090;51.512;11.332;2022-11-20T03:34:05;9.27;;;3.38;;
64674;SDS011;51090;51.512;11.332;2022-11-20T03:36:33;8.70;;;3.72;;
64674;SDS011;51090;51.512;11.332;2022-11-20T03:38:59;9.95;;;4.38;;
64674;SDS011;51090;51.512;11.332;2022-11-20T03:41:26;9.68;;;4.05;;
64674;SDS011;51090;51.512;11.332;2022-11-20T03:43:56;10.10;;;4.45;;
64674;SDS011;51090;51.512;11.332;2022-11-20T03:46:24;10.93;;;4.20;;
64674;SDS011;51090;51.512;11.332;2022-11-20T03:48:52;9.65;;;4.10;;
64674;SDS011;51090;51.512;11.332;2022-11-20T03:51:20;11.75;;;4.72;;
64674;SDS011;51090;51.512;11.332;2022-11-20T03:53:47;7.82;;;3.85;;
64674;SDS011;51090;51.512;11.332;2022-11-20T03:56:15;11.38;;;4.65;;
64674;SDS011;51090;51.512;11.332;2022-11-20T03:58:43;10.30;;;4.13;;
64674;SDS011;51090;51.512;11.332;2022-11-20T04:01:10;9.88;;;3.75;;
64674;SDS011;51090;51.512;11.332;2022-11-20T04:03:42;10.32;;;4.30;;
64674;SDS011;51090;51.512;11.332;2022-11-20T04:06:10;8.90;;;3.95;;
64674;SDS011;51090;51.512;11.332;2022-11-20T04:08:39;11.40;;;4.40;;
64674;SDS011;51090;51.512;11.332;2022-11-20T04:13:38;9.20;;;3.28;;
64674;SDS011;51090;51.512;11.332;2022-11-20T04:16:05;11.60;;;4.07;;
64674;SDS011;51090;51.512;11.332;2022-11-20T04:18:32;10.45;;;3.50;;
64674;SDS011;51090;51.512;11.332;2022-11-20T04:20:58;14.65;;;4.85;;
64674;SDS011;51090;51.512;11.332;2022-11-20T04:23:24;9.65;;;3.72;;
64674;SDS011;51090;51.512;11.332;2022-11-20T04:25:51;10.18;;;4.22;;
64674;SDS011;51090;51.512;11.332;2022-11-20T04:28:17;9.82;;;3.70;;
64674;SDS011;51090;51.512;11.332;2022-11-20T04:30:43;9.38;;;4.05;;
64674;SDS011;51090;51.512;11.332;2022-11-20T04:33:09;8.38;;;3.67;;
64674;SDS011;51090;51.512;11.332;2022-11-20T04:35:35;8.50;;;4.10;;
64674;SDS011;51090;51.512;11.332;2022-11-20T04:38:02;9.75;;;2.90;;
64674;SDS011;51090;51.512;11.332;2022-11-20T04:40:28;9.73;;;4.05;;
64674;SDS011;51090;51.512;11.332;2022-11-20T04:42:55;6.82;;;3.22;;
64674;SDS011;51090;51.512;11.332;2022-11-20T04:45:21;8.52;;;3.33;;
64674;SDS011;51090;51.512;11.332;2022-11-20T04:47:48;10.20;;;3.95;;
64674;SDS011;51090;51.512;11.332;2022-11-20T04:50:14;7.72;;;3.50;;
64674;SDS011;51090;51.512;11.332;2022-11-20T04:52:40;8.90;;;3.15;;
64674;SDS011;51090;51.512;11.332;2022-11-20T04:55:06;6.25;;;3.25;;
64674;SDS011;51090;51.512;11.332;2022-11-20T04:57:32;8.00;;;3.55;;
64674;SDS011;51090;51.512;11.332;2022-11-20T04:59:58;9.38;;;3.38;;
64674;SDS011;51090;51.512;11.332;2022-11-20T05:02:24;8.82;;;3.53;;
64674;SDS011;51090;51.512;11.332;2022-11-20T05:04:49;9.68;;;3.08;;
64674;SDS011;51090;51.512;11.332;2022-11-20T05:07:15;7.55;;;3.33;;
64674;SDS011;51090;51.512;11.332;2022-11-20T05:09:41;7.80;;;3.25;;
64674;SDS011;51090;51.512;11.332;2022-11-20T05:12:07;10.30;;;2.88;;
64674;SDS011;51090;51.512;11.332;2022-11-20T05:14:34;5.85;;;2.95;;
64674;SDS011;51090;51.512;11.332;2022-11-20T05:17:00;7.03;;;3.10;;
64674;SDS011;51090;51.512;11.332;2022-11-20T05:19:26;11.00;;;4.07;;
64674;SDS011;51090;51.512;11.332;2022-11-20T05:21:51;10.15;;;3.33;;
64674;SDS011;51090;51.512;11.332;2022-11-20T05:24:17;9.85;;;2.97;;
64674;SDS011;51090;51.512;11.332;2022-11-20T05:26:43;11.18;;;3.78;;
64674;SDS011;51090;51.512;11.332;2022-11-20T05:29:11;8.57;;;3.30;;
64674;SDS011;51090;51.512;11.332;2022-11-20T05:31:38;10.13;;;4.07;;
64674;SDS011;51090;51.512;11.332;2022-11-20T05:34:06;11.40;;;4.82;;
64674;SDS011;51090;51.512;11.332;2022-11-20T05:36:32;11.27;;;4.50;;
64674;SDS011;51090;51.512;11.332;2022-11-20T05:38:57;11.15;;;4.88;;
64674;SDS011;51090;51.512;11.332;2022-11-20T05:41:23;11.35;;;4.93;;
64674;SDS011;51090;51.512;11.332;2022-11-20T05:43:50;11.65;;;5.82;;
64674;SDS011;51090;51.512;11.332;2022-11-20T05:46:17;9.43;;;4.10;;
64674;SDS011;51090;51.512;11.332;2022-11-20T05:48:46;10.60;;;4.55;;
64674;SDS011;51090;51.512;11.332;2022-11-20T05:51:13;10.35;;;4.55;;
64674;SDS011;51090;51.512;11.332;2022-11-20T05:53:43;11.63;;;3.95;;
64674;SDS011;51090;51.512;11.332;2022-11-20T05:56:10;7.82;;;3.28;;
64674;SDS011;51090;51.512;11.332;2022-11-20T05:58:42;7.47;;;3.20;;
64674;SDS011;51090;51.512;11.332;2022-11-20T06:01:09;9.77;;;3.65;;
64674;SDS011;51090;51.512;11.332;2022-11-20T06:03:41;9.70;;;4.28;;
64674;SDS011;51090;51.512;11.332;2022-11-20T06:06:10;9.00;;;4.15;;
64674;SDS011;51090;51.512;11.332;2022-11-20T06:08:37;9.23;;;4.05;;
64674;SDS011;51090;51.512;11.332;2022-11-20T06:11:06;10.00;;;4.32;;
64674;SDS011;51090;51.512;11.332;2022-11-20T06:13:34;8.20;;;3.72;;
64674;SDS011;51090;51.512;11.332;2022-11-20T06:16:00;8.45;;;3.15;;
64674;SDS011;51090;51.512;11.332;2022-11-20T06:18:27;9.43;;;4.88;;
64674;SDS011;51090;51.512;11.332;2022-11-20T06:20:59;10.48;;;3.80;;
64674;SDS011;51090;51.512;11.332;2022-11-20T06:23:36;8.50;;;3.35;;
64674;SDS011;51090;51.512;11.332;2022-11-20T06:26:03;9.57;;;3.72;;
64674;SDS011;51090;51.512;11.332;2022-11-20T06:28:33;10.60;;;3.83;;
64674;SDS011;51090;51.512;11.332;2022-11-20T06:30:59;9.38;;;4.05;;
64674;SDS011;51090;51.512;11.332;2022-11-20T06:33:26;9.27;;;3.38;;
64674;SDS011;51090;51.512;11.332;2022-11-20T06:35:52;9.02;;;3.30;;
64674;SDS011;51090;51.512;11.332;2022-11-20T06:38:21;8.77;;;3.53;;
64674;SDS011;51090;51.512;11.332;2022-11-20T06:40:47;12.40;;;4.63;;
64674;SDS011;51090;51.512;11.332;2022-11-20T06:43:12;11.73;;;5.22;;
64674;SDS011;51090;51.512;11.332;2022-11-20T06:45:38;11.32;;;4.55;;
64674;SDS011;51090;51.512;11.332;2022-11-20T06:48:04;10.02;;;4.22;;
64674;SDS011;51090;51.512;11.332;2022-11-20T06:50:30;12.40;;;4.90;;
64674;SDS011;51090;51.512;11.332;2022-11-20T06:52:55;10.60;;;4.72;;
64674;SDS011;51090;51.512;11.332;2022-11-20T06:55:21;9.50;;;4.38;;
64674;SDS011;51090;51.512;11.332;2022-11-20T06:57:47;11.77;;;4.80;;
64674;SDS011;51090;51.512;11.332;2022-11-20T07:00:13;13.20;;;5.13;;
64674;SDS011;51090;51.512;11.332;2022-11-20T07:02:39;14.07;;;5.63;;
64674;SDS011;51090;51.512;11.332;2022-11-20T07:05:05;13.75;;;5.80;;
64674;SDS011;51090;51.512;11.332;2022-11-20T07:07:31;15.18;;;6.18;;
64674;SDS011;51090;51.512;11.332;2022-11-20T07:09:57;18.90;;;6.57;;
64674;SDS011;51090;51.512;11.332;2022-11-20T07:12:22;20.95;;;7.43;;
64674;SDS011;51090;51.512;11.332;2022-11-20T07:14:48;17.20;;;6.95;;
64674;SDS011;51090;51.512;11.332;2022-11-20T07:17:14;17.80;;;5.97;;
64674;SDS011;51090;51.512;11.332;2022-11-20T07:19:39;16.80;;;6.55;;
64674;SDS011;51090;51.512;11.332;2022-11-20T07:22:05;16.27;;;6.97;;
64674;SDS011;51090;51.512;11.332;2022-11-20T07:24:31;14.68;;;6.63;;
64674;SDS011;51090;51.512;11.332;2022-11-20T07:26:57;14.85;;;6.68;;
64674;SDS011;51090;51.512;11.332;2022-11-20T07:29:22;16.88;;;8.05;;
64674;SDS011;51090;51.512;11.332;2022-11-20T07:31:48;18.42;;;8.02;;
64674;SDS011;51090;51.512;11.332;2022-11-20T07:34:14;19.30;;;8.25;;
64674;SDS011;51090;51.512;11.332;2022-11-20T07:36:39;17.60;;;7.95;;
64674;SDS011;51090;51.512;11.332;2022-11-20T07:39:05;24.55;;;8.48;;
64674;SDS011;51090;51.512;11.332;2022-11-20T07:41:31;21.50;;;9.27;;
64674;SDS011;51090;51.512;11.332;2022-11-20T07:43:57;45.60;;;11.02;;
64674;SDS011;51090;51.512;11.332;2022-11-20T07:46:24;28.35;;;8.68;;
64674;SDS011;51090;51.512;11.332;2022-11-20T07:48:50;45.83;;;9.07;;
64674;SDS011;51090;51.512;11.332;2022-11-20T07:51:15;32.25;;;11.30;;
64674;SDS011;51090;51.512;11.332;2022-11-20T07:53:41;39.60;;;9.95;;
64674;SDS011;51090;51.512;11.332;2022-11-20T07:56:07;24.17;;;11.02;;
64674;SDS011;51090;51.512;11.332;2022-11-20T07:58:33;22.52;;;9.32;;
64674;SDS011;51090;51.512;11.332;2022-11-20T08:01:06;22.58;;;9.63;;
64674;SDS011;51090;51.512;11.332;2022-11-20T08:03:32;21.15;;;9.05;;
64674;SDS011;51090;51.512;11.332;2022-11-20T08:05:59;27.23;;;8.75;;
64674;SDS011;51090;51.512;11.332;2022-11-20T08:08:26;43.90;;;15.48;;
64674;SDS011;51090;51.512;11.332;2022-11-20T08:10:52;31.85;;;9.90;;
64674;SDS011;51090;51.512;11.332;2022-11-20T08:13:38;20.58;;;8.45;;
64674;SDS011;51090;51.512;11.332;2022-11-20T08:16:22;22.45;;;9.05;;
64674;SDS011;51090;51.512;11.332;2022-11-20T08:18:48;24.10;;;9.40;;
64674;SDS011;51090;51.512;11.332;2022-11-20T08:21:14;24.13;;;8.68;;
64674;SDS011;51090;51.512;11.332;2022-11-20T08:23:40;39.78;;;11.65;;
64674;SDS011;51090;51.512;11.332;2022-11-20T08:26:05;27.08;;;10.45;;
64674;SDS011;51090;51.512;11.332;2022-11-20T08:28:31;32.00;;;12.60;;
64674;SDS011;51090;51.512;11.332;2022-11-20T08:30:58;31.67;;;11.80;;
64674;SDS011;51090;51.512;11.332;2022-11-20T08:33:25;25.83;;;9.20;;
64674;SDS011;51090;51.512;11.332;2022-11-20T08:35:51;28.98;;;12.38;;
64674;SDS011;51090;51.512;11.332;2022-11-20T08:38:16;26.15;;;11.63;;
64674;SDS011;51090;51.512;11.332;2022-11-20T08:40:42;28.70;;;12.10;;
64674;SDS011;51090;51.512;11.332;2022-11-20T08:43:28;26.70;;;11.45;;
64674;SDS011;51090;51.512;11.332;2022-11-20T08:45:55;26.42;;;11.50;;
64674;SDS011;51090;51.512;11.332;2022-11-20T08:48:22;26.33;;;11.00;;
64674;SDS011;51090;51.512;11.332;2022-11-20T08:50:48;25.02;;;11.20;;
64674;SDS011;51090;51.512;11.332;2022-11-20T08:53:14;27.08;;;11.38;;
64674;SDS011;51090;51.512;11.332;2022-11-20T08:55:39;29.63;;;11.70;;
64674;SDS011;51090;51.512;11.332;2022-11-20T08:58:06;26.17;;;10.77;;
64674;SDS011;51090;51.512;11.332;2022-11-20T09:00:32;27.33;;;11.52;;
64674;SDS011;51090;51.512;11.332;2022-11-20T09:02:59;28.73;;;12.07;;
64674;SDS011;51090;51.512;11.332;2022-11-20T09:05:26;35.97;;;16.08;;
64674;SDS011;51090;51.512;11.332;2022-11-20T09:07:55;31.48;;;14.00;;
64674;SDS011;51090;51.512;11.332;2022-11-20T09:10:22;26.13;;;11.65;;
64674;SDS011;51090;51.512;11.332;2022-11-20T09:12:50;23.27;;;10.02;;
64674;SDS011;51090;51.512;11.332;2022-11-20T09:15:17;27.80;;;11.77;;
64674;SDS011;51090;51.512;11.332;2022-11-20T09:17:59;25.25;;;11.10;;
64674;SDS011;51090;51.512;11.332;2022-11-20T09:20:27;29.02;;;11.38;;
64674;SDS011;51090;51.512;11.332;2022-11-20T09:22:55;20.42;;;9.50;;
64674;SDS011;51090;51.512;11.332;2022-11-20T09:25:21;22.83;;;10.27;;
64674;SDS011;51090;51.512;11.332;2022-11-20T09:27:47;23.35;;;9.93;;
64674;SDS011;51090;51.512;11.332;2022-11-20T09:30:20;23.70;;;9.55;;
64674;SDS011;51090;51.512;11.332;2022-11-20T09:32:45;23.65;;;10.20;;
64674;SDS011;51090;51.512;11.332;2022-11-20T09:35:11;25.60;;;10.48;;
64674;SDS011;51090;51.512;11.332;2022-11-20T09:37:37;26.48;;;10.10;;
64674;SDS011;51090;51.512;11.332;2022-11-20T09:40:03;22.73;;;10.75;;
64674;SDS011;51090;51.512;11.332;2022-11-20T09:45:22;24.52;;;9.85;;
64674;SDS011;51090;51.512;11.332;2022-11-20T09:48:20;24.63;;;10.15;;
64674;SDS011;51090;51.512;11.332;2022-11-20T09:56:30;24.70;;;11.48;;
64674;SDS011;51090;51.512;11.332;2022-11-20T09:59:03;25.98;;;12.05;;
64674;SDS011;51090;51.512;11.332;2022-11-20T10:01:33;29.17;;;12.75;;
64674;SDS011;51090;51.512;11.332;2022-11-20T10:04:04;27.52;;;11.73;;
64674;SDS011;51090;51.512;11.332;2022-11-20T10:06:40;28.98;;;12.68;;
64674;SDS011;51090;51.512;11.332;2022-11-20T10:09:30;23.83;;;11.45;;
64674;SDS011;51090;51.512;11.332;2022-11-20T10:24:13;22.58;;;11.00;;
64674;SDS011;51090;51.512;11.332;2022-11-20T10:29:22;24.08;;;10.35;;
64674;SDS011;51090;51.512;11.332;2022-11-20T10:32:07;25.33;;;10.52;;
64674;SDS011;51090;51.512;11.332;2022-11-20T10:37:26;22.27;;;9.20;;
64674;SDS011;51090;51.512;11.332;2022-11-20T10:39:57;21.98;;;10.95;;
64674;SDS011;51090;51.512;11.332;2022-11-20T10:47:50;22.27;;;10.07;;
64674;SDS011;51090;51.512;11.332;2022-11-20T10:50:32;26.55;;;11.93;;
64674;SDS011;51090;51.512;11.332;2022-11-20T10:53:05;21.65;;;8.98;;
64674;SDS011;51090;51.512;11.332;2022-11-20T10:56:51;27.77;;;12.02;;
64674;SDS011;51090;51.512;11.332;2022-11-20T10:59:24;21.58;;;9.57;;
64674;SDS011;51090;51.512;11.332;2022-11-20T11:02:24;23.98;;;10.43;;
64674;SDS011;51090;51.512;11.332;2022-11-20T11:05:03;20.48;;;8.30;;
64674;SDS011;51090;51.512;11.332;2022-11-20T11:07:58;24.00;;;10.98;;
64674;SDS011;51090;51.512;11.332;2022-11-20T11:13:26;20.50;;;8.98;;
64674;SDS011;51090;51.512;11.332;2022-11-20T11:15:55;20.13;;;8.50;;
64674;SDS011;51090;51.512;11.332;2022-11-20T11:18:22;21.25;;;9.70;;
64674;SDS011;51090;51.512;11.332;2022-11-20T11:20:51;20.38;;;9.40;;
64674;SDS011;51090;51.512;11.332;2022-11-20T11:26:00;19.25;;;8.73;;
64674;SDS011;51090;51.512;11.332;2022-11-20T11:28:28;20.30;;;9.40;;
64674;SDS011;51090;51.512;11.332;2022-11-20T11:30:54;21.73;;;9.77;;
64674;SDS011;51090;51.512;11.332;2022-11-20T11:33:27;20.30;;;9.15;;
64674;SDS011;51090;51.512;11.332;2022-11-20T11:36:04;75.07;;;31.02;;
64674;SDS011;51090;51.512;11.332;2022-11-20T11:38:44;38.47;;;19.02;;
64674;SDS011;51090;51.512;11.332;2022-11-20T11:41:17;21.95;;;11.25;;
64674;SDS011;51090;51.512;11.332;2022-11-20T11:44:21;20.60;;;9.45;;
64674;SDS011;51090;51.512;11.332;2022-11-20T11:47:24;19.92;;;9.38;;
64674;SDS011;51090;51.512;11.332;2022-11-20T11:50:16;23.25;;;9.80;;
64674;SDS011;51090;51.512;11.332;2022-11-20T11:52:51;18.70;;;9.15;;
64674;SDS011;51090;51.512;11.332;2022-11-20T11:55:36;22.00;;;8.68;;
64674;SDS011;51090;51.512;11.332;2022-11-20T12:10:19;18.88;;;8.10;;
64674;SDS011;51090;51.512;11.332;2022-11-20T12:16:13;26.75;;;9.98;;
64674;SDS011;51090;51.512;11.332;2022-11-20T12:18:42;51.50;;;15.52;;
64674;SDS011;51090;51.512;11.332;2022-11-20T13:00:24;18.67;;;7.53;;
64674;SDS011;51090;51.512;11.332;2022-11-20T13:09:00;20.70;;;9.43;;
64674;SDS011;51090;51.512;11.332;2022-11-20T13:11:32;20.27;;;8.60;;
64674;SDS011;51090;51.512;11.332;2022-11-20T13:14:11;20.52;;;9.15;;
64674;SDS011;51090;51.512;11.332;2022-11-20T13:17:05;20.70;;;8.65;;
64674;SDS011;51090;51.512;11.332;2022-11-20T13:19:38;17.02;;;9.00;;
64674;SDS011;51090;51.512;11.332;2022-11-20T13:22:04;18.15;;;7.80;;
64674;SDS011;51090;51.512;11.332;2022-11-20T13:24:31;19.35;;;8.27;;
64674;SDS011;51090;51.512;11.332;2022-11-20T13:29:37;19.63;;;7.97;;
64674;SDS011;51090;51.512;11.332;2022-11-20T13:32:15;18.08;;;8.55;;
64674;SDS011;51090;51.512;11.332;2022-11-20T13:34:54;19.73;;;7.63;;
64674;SDS011;51090;51.512;11.332;2022-11-20T13:37:27;19.85;;;7.20;;
64674;SDS011;51090;51.512;11.332;2022-11-20T13:42:35;16.33;;;7.35;;
64674;SDS011;51090;51.512;11.332;2022-11-20T13:45:25;16.50;;;7.53;;
64674;SDS011;51090;51.512;11.332;2022-11-20T13:47:56;18.93;;;8.80;;
64674;SDS011;51090;51.512;11.332;2022-11-20T13:50:39;20.80;;;8.50;;
64674;SDS011;51090;51.512;11.332;2022-11-20T13:56:39;22.33;;;9.50;;
64674;SDS011;51090;51.512;11.332;2022-11-20T13:59:28;19.45;;;8.20;;
64674;SDS011;51090;51.512;11.332;2022-11-20T14:02:16;19.52;;;7.70;;
64674;SDS011;51090;51.512;11.332;2022-11-20T14:04:46;19.38;;;7.85;;
64674;SDS011;51090;51.512;11.332;2022-11-20T14:07:16;16.88;;;8.15;;
64674;SDS011;51090;51.512;11.332;2022-11-20T14:09:54;26.63;;;11.13;;
64674;SDS011;51090;51.512;11.332;2022-11-20T14:12:23;19.92;;;8.95;;
64674;SDS011;51090;51.512;11.332;2022-11-20T14:14:54;23.55;;;10.60;;
64674;SDS011;51090;51.512;11.332;2022-11-20T14:19:59;22.30;;;8.70;;
64674;SDS011;51090;51.512;11.332;2022-11-20T14:22:31;61.47;;;20.75;;
64674;SDS011;51090;51.512;11.332;2022-11-20T14:25:01;39.60;;;14.40;;
64674;SDS011;51090;51.512;11.332;2022-11-20T14:30:00;33.00;;;13.10;;
64674;SDS011;51090;51.512;11.332;2022-11-20T14:32:27;33.28;;;12.52;;
64674;SDS011;51090;51.512;11.332;2022-11-20T14:34:55;27.58;;;12.32;;
64674;SDS011;51090;51.512;11.332;2022-11-20T14:37:36;23.80;;;9.90;;
64674;SDS011;51090;51.512;11.332;2022-11-20T14:40:05;23.02;;;9.70;;
64674;SDS011;51090;51.512;11.332;2022-11-20T14:42:57;35.05;;;12.57;;
64674;SDS011;51090;51.512;11.332;2022-11-20T14:45:24;25.23;;;10.38;;
64674;SDS011;51090;51.512;11.332;2022-11-20T14:47:51;21.75;;;9.57;;
64674;SDS011;51090;51.512;11.332;2022-11-20T14:50:24;30.13;;;11.90;;
64674;SDS011;51090;51.512;11.332;2022-11-20T14:52:54;22.50;;;8.70;;
64674;SDS011;51090;51.512;11.332;2022-11-20T14:57:57;19.65;;;8.30;;
64674;SDS011;51090;51.512;11.332;2022-11-20T15:00:29;21.85;;;8.57;;
64674;SDS011;51090;51.512;11.332;2022-11-20T15:02:57;22.20;;;8.60;;
64674;SDS011;51090;51.512;11.332;2022-11-20T15:05:24;20.40;;;8.23;;
64674;SDS011;51090;51.512;11.332;2022-11-20T15:08:09;19.05;;;7.45;;
64674;SDS011;51090;51.512;11.332;2022-11-20T15:10:45;18.80;;;6.93;;
64674;SDS011;51090;51.512;11.332;2022-11-20T15:13:14;19.70;;;8.15;;
64674;SDS011;51090;51.512;11.332;2022-11-20T15:15:52;22.13;;;8.68;;
64674;SDS011;51090;51.512;11.332;2022-11-20T15:18:30;20.30;;;8.05;;
64674;SDS011;51090;51.512;11.332;2022-11-20T15:21:02;18.50;;;7.60;;
64674;SDS011;51090;51.512;11.332;2022-11-20T15:23:31;16.52;;;7.40;;
64674;SDS011;51090;51.512;11.332;2022-11-20T15:25:56;19.00;;;7.28;;
64674;SDS011;51090;51.512;11.332;2022-11-20T15:31:14;17.23;;;7.25;;
64674;SDS011;51090;51.512;11.332;2022-11-20T15:33:43;17.77;;;6.97;;
64674;SDS011;51090;51.512;11.332;2022-11-20T15:36:09;20.77;;;7.90;;
64674;SDS011;51090;51.512;11.332;2022-11-20T15:38:35;16.38;;;7.18;;
64674;SDS011;51090;51.512;11.332;2022-11-20T15:41:01;21.77;;;7.88;;
64674;SDS011;51090;51.512;11.332;2022-11-20T15:43:27;37.70;;;11.40;;
64674;SDS011;51090;51.512;11.332;2022-11-20T15:45:53;23.60;;;9.18;;
64674;SDS011;51090;51.512;11.332;2022-11-20T15:48:26;16.52;;;7.13;;
64674;SDS011;51090;51.512;11.332;2022-11-20T15:50:58;19.50;;;8.05;;
64674;SDS011;51090;51.512;11.332;2022-11-20T15:53:36;20.83;;;8.13;;
64674;SDS011;51090;51.512;11.332;2022-11-20T15:56:03;19.63;;;8.45;;
64674;SDS011;51090;51.512;11.332;2022-11-20T15:58:29;22.42;;;8.63;;
64674;SDS011;51090;51.512;11.332;2022-11-20T16:00:55;20.27;;;8.88;;
64674;SDS011;51090;51.512;11.332;2022-11-20T16:03:21;22.30;;;8.25;;
64674;SDS011;51090;51.512;11.332;2022-11-20T16:05:47;24.85;;;8.77;;
64674;SDS011;51090;51.512;11.332;2022-11-20T16:08:13;18.63;;;7.60;;
64674;SDS011;51090;51.512;11.332;2022-11-20T16:10:39;20.05;;;7.05;;
64674;SDS011;51090;51.512;11.332;2022-11-20T16:13:11;19.75;;;6.85;;
64674;SDS011;51090;51.512;11.332;2022-11-20T16:16:03;21.10;;;9.30;;
64674;SDS011;51090;51.512;11.332;2022-11-20T16:18:34;24.40;;;9.68;;
64674;SDS011;51090;51.512;11.332;2022-11-20T16:21:00;20.90;;;8.20;;
64674;SDS011;51090;51.512;11.332;2022-11-20T16:23:26;19.55;;;7.65;;
64674;SDS011;51090;51.512;11.332;2022-11-20T16:25:52;16.95;;;7.32;;
64674;SDS011;51090;51.512;11.332;2022-11-20T16:28:18;19.23;;;7.57;;
64674;SDS011;51090;51.512;11.332;2022-11-20T16:30:44;15.45;;;6.78;;
64674;SDS011;51090;51.512;11.332;2022-11-20T16:33:11;17.08;;;7.15;;
64674;SDS011;51090;51.512;11.332;2022-11-20T16:35:39;15.50;;;6.38;;
64674;SDS011;51090;51.512;11.332;2022-11-20T16:38:05;18.88;;;7.80;;
64674;SDS011;51090;51.512;11.332;2022-11-20T16:40:31;22.15;;;7.65;;